アピア の空港の天気 - METARとTAF

ファレオロ国際空港(サモア) ( NSFA / APW ) - サモア アピア
飛行場実況気象(Metar)
観測時間11/29 07:00 WSDT (11/28 17:00 UTC)
風向・風速南南東 2m/s
視程10km以上
天気現象
少しの雲 雲底高度 670m
少しの雲 雲底高度 850m
気温22℃
湿度100%
気圧1009hPa
METARNSFA 281700Z 15003KT 9999 FEW022TCU FEW028 22/22 Q1009 RMK TCU TO NE
過去の天気等 Google飛行場航空写真 Wunderground天気予報

過去48時間のMETAR

飛行場予報(TAF)
発表時間: 11/29 01:01 WSDT (11/28 11:01 UTC)
予報対象時間: 29日2時 WSDT ~ 30日2時 WSDT
風向・風速東南東 3m/s
視程10km以上
少しの雲 雲底高度 610m
全天の4割程度の雲 雲底高度 730m
全天の8割程度の雲 雲底高度 3050m
29日2時 WSDT ~ 29日8時 WSDT に 確率 40% で一時的に
視程5000m
天気現象雷雨
全天の8割程度の雲 雲底高度 460m
少しの積乱雲 雲底高度 520m
29日14時 WSDT ~ 29日24時 WSDT に 確率 40% で一時的に
視程5000m
天気現象雷雨
全天の8割程度の雲 雲底高度 460m
少しの積乱雲 雲底高度 520m
TAF NSFA 281101Z 2812/2912 12005KT 9999 FEW020 SCT024 BKN100
PROB40 TEMPO 2812/2818 5000 TSRA BKN015 FEW017CB
PROB40 TEMPO 2900/2910 5000 TSRA BKN015 FEW017CB